Unser Platzwetter:
(um das Bild zu aktualisieren oder bei unvollständig geladenem Bild den Reload-Button des Browsers drücken)

 

 
[Quelle: ADDS]
METAR
ETNN 271920Z 14007KT 9999 FEW018 BKN040 BKN090 07/05 Q1001 BLU BLU TEMPO GRN =
ETNN 271432Z 2715/2724 19008KT 9999 NSW FEW020 BKN040 TEMPO 2715/2724 21012G22KT 4000 RADZ BKN010 BKN025 BY ETGL
TAF
ETNN 271432Z 2715/2724 19008KT 9999 NSW FEW020 BKN040 TEMPO 2715/2724 21012G22KT 4000 RADZ BKN010 BKN025 BY ETGL =
SR / SS: 07:16 / 16:15 UTC (Vettweiss-Soller 2020-01-27)
 

Hier gibt es ein Wetterdiagramm der letzten 7 Tage.

Hier geht es zu unserer Webcam.

Satelitenbild:

aktuelles Meteosat-Bild von www.wetterzentrale.de